Happy, Kentucky
Current Conditions -  °F | °C
As of 3:55 PM on Tuesday 25 Nov 2014 (Local Time) from KI35 Reporting Station
Clear Clear  
Wind Chill: 55°   Ceiling: Unl
Heat Index: 55°   Visibility: 10mi
Dew Point: 23°   Wind: 7mph
Humidity: 28%   Direction: 280°W
Pressure: 30.05"   Gusts: NA
Location:  37.2°N, 83.1°W
Report Text: KI35 252055Z AUTO 28006KT 10SM CLR 13/M05 A3005 RMK AO1
Loading
Personal Weather Stations






























Interactive Weather Map New forecast layout! Learn more

10-Day Weather Forecast

Advertisements
Track Severe Weather on mobile